createdAt,value
2017-12-25T00:02:05.495Z,87.31
2017-12-25T00:04:33.033Z,87.48
2017-12-25T00:07:00.557Z,87.58
2017-12-25T00:09:28.089Z,87.50
2017-12-25T00:11:55.633Z,86.87
2017-12-25T00:14:23.154Z,86.66
2017-12-25T00:16:50.686Z,86.81
2017-12-25T00:19:18.252Z,86.72
2017-12-25T00:21:45.975Z,86.32
2017-12-25T00:24:13.553Z,86.14
2017-12-25T00:26:41.105Z,86.42
2017-12-25T00:29:08.640Z,86.59
2017-12-25T00:31:36.180Z,86.69
2017-12-25T00:34:03.701Z,86.74
2017-12-25T00:36:31.218Z,86.16
2017-12-25T00:38:58.754Z,87.46
2017-12-25T00:41:26.282Z,87.64
2017-12-25T00:43:53.818Z,86.40
2017-12-25T00:46:21.335Z,87.37
2017-12-25T00:48:48.913Z,87.93
2017-12-25T00:51:16.499Z,88.32
2017-12-25T00:53:44.008Z,87.37
2017-12-25T00:56:11.540Z,87.88
2017-12-25T00:58:39.165Z,86.56
2017-12-25T01:01:06.679Z,87.29
2017-12-25T01:03:34.213Z,86.70
2017-12-25T01:06:01.739Z,86.93
2017-12-25T01:08:29.265Z,87.09
2017-12-25T01:10:56.807Z,88.03
2017-12-25T01:13:24.334Z,87.41
2017-12-25T01:15:52.074Z,87.60
2017-12-25T01:18:19.615Z,88.17
2017-12-25T01:20:47.294Z,88.11
2017-12-25T01:23:14.896Z,87.74
2017-12-25T01:25:42.404Z,88.40
2017-12-25T01:28:09.933Z,88.45
2017-12-25T01:30:37.505Z,88.73
2017-12-25T01:33:05.024Z,87.86
2017-12-25T01:35:32.558Z,87.65
2017-12-25T01:38:00.095Z,88.13
2017-12-25T01:40:27.620Z,87.39
2017-12-25T01:42:55.199Z,87.37
2017-12-25T01:45:22.728Z,87.85
2017-12-25T01:47:50.259Z,87.68
2017-12-25T01:50:18.768Z,87.14
2017-12-25T01:52:46.311Z,87.49
2017-12-25T01:55:13.823Z,87.98
2017-12-25T01:57:43.126Z,88.33
2017-12-25T02:00:13.443Z,88.73
2017-12-25T02:02:57.751Z,88.51
2017-12-25T02:08:32.873Z,88.16
2017-12-25T02:11:00.400Z,88.42
2017-12-25T02:13:27.927Z,88.51
2017-12-25T02:15:55.546Z,88.99
2017-12-25T02:18:23.055Z,88.61
2017-12-25T02:20:50.589Z,88.31
2017-12-25T02:23:18.181Z,88.90
2017-12-25T02:25:45.743Z,88.28
2017-12-25T02:28:13.274Z,88.28
2017-12-25T02:30:40.804Z,88.17
2017-12-25T02:33:08.324Z,88.56
2017-12-25T02:35:35.864Z,88.59
2017-12-25T02:38:03.363Z,89.35
2017-12-25T02:40:30.875Z,88.85
2017-12-25T02:42:58.408Z,88.90
2017-12-25T02:45:25.940Z,89.45
2017-12-25T02:47:53.450Z,89.22
2017-12-25T02:50:20.972Z,88.91
2017-12-25T02:52:48.520Z,88.92
2017-12-25T02:55:16.013Z,88.83
2017-12-25T02:57:43.709Z,88.32
2017-12-25T03:00:11.214Z,88.85
2017-12-25T03:02:40.103Z,89.12
2017-12-25T03:05:07.635Z,89.10
2017-12-25T03:07:35.184Z,88.81
2017-12-25T03:10:02.789Z,88.46
2017-12-25T03:12:30.372Z,88.81
2017-12-25T03:14:57.924Z,89.49
2017-12-25T03:17:25.455Z,89.25
2017-12-25T03:19:52.967Z,89.12
2017-12-25T03:22:20.491Z,88.59
2017-12-25T03:24:48.014Z,89.11
2017-12-25T03:27:15.520Z,89.35
2017-12-25T03:29:43.031Z,89.37
2017-12-25T03:32:10.546Z,88.87
2017-12-25T03:34:38.062Z,89.29
2017-12-25T03:37:05.606Z,88.45
2017-12-25T03:39:33.111Z,88.62
2017-12-25T03:42:00.631Z,88.40
2017-12-25T03:44:28.146Z,88.58
2017-12-25T03:46:55.658Z,89.59
2017-12-25T03:49:23.175Z,89.76
2017-12-25T03:51:50.789Z,89.04
2017-12-25T03:54:18.329Z,89.67
2017-12-25T03:56:45.824Z,89.71
2017-12-25T03:59:13.351Z,88.18
2017-12-25T04:01:40.864Z,88.84
2017-12-25T04:04:08.414Z,88.87
2017-12-25T04:06:35.927Z,88.70
2017-12-25T04:09:03.426Z,88.75
2017-12-25T04:11:30.936Z,88.98
2017-12-25T04:13:58.459Z,88.39
2017-12-25T04:16:25.971Z,88.97
2017-12-25T04:18:53.480Z,89.20
2017-12-25T04:21:21.044Z,89.77
2017-12-25T04:23:48.595Z,89.89
2017-12-25T04:26:16.121Z,88.81
2017-12-25T04:28:43.665Z,89.00
2017-12-25T04:31:11.174Z,89.40
2017-12-25T04:33:38.667Z,89.10
2017-12-25T04:36:06.225Z,88.82
2017-12-25T04:38:33.737Z,88.72
2017-12-25T04:41:01.242Z,88.69
2017-12-25T04:43:28.764Z,88.56
2017-12-25T04:45:56.305Z,87.95
2017-12-25T04:48:23.816Z,88.36
2017-12-25T04:50:51.355Z,88.51
2017-12-25T04:53:18.891Z,88.45
2017-12-25T04:55:46.496Z,89.37
2017-12-25T04:58:14.032Z,89.12
2017-12-25T05:00:41.598Z,89.84
2017-12-25T05:03:09.132Z,89.41
2017-12-25T05:05:36.630Z,87.85
2017-12-25T05:08:04.179Z,88.99
2017-12-25T05:10:31.710Z,90.05
2017-12-25T05:12:59.290Z,88.77
2017-12-25T05:15:26.837Z,88.18
2017-12-25T05:17:54.359Z,88.81
2017-12-25T05:20:21.886Z,89.41
2017-12-25T05:22:49.411Z,88.97
2017-12-25T05:25:16.940Z,88.98
2017-12-25T05:27:44.441Z,89.37
2017-12-25T05:30:11.957Z,89.21
2017-12-25T05:32:39.510Z,89.16
2017-12-25T05:35:07.020Z,88.84
2017-12-25T05:37:34.583Z,88.60
2017-12-25T05:40:02.087Z,87.97
2017-12-25T05:42:29.652Z,88.60
2017-12-25T05:44:57.160Z,89.39
2017-12-25T05:47:24.695Z,89.57
2017-12-25T05:49:52.200Z,89.60
2017-12-25T05:52:20.060Z,90.08
2017-12-25T05:54:47.601Z,90.34
2017-12-25T05:57:15.131Z,90.40
2017-12-25T05:59:42.674Z,89.83
2017-12-25T06:02:10.225Z,89.14
2017-12-25T06:04:37.776Z,89.46
2017-12-25T06:07:05.300Z,88.81
2017-12-25T06:09:32.830Z,89.30
2017-12-25T06:12:00.340Z,89.42
2017-12-25T06:14:27.877Z,90.23
2017-12-25T06:16:55.395Z,89.21
2017-12-25T06:19:22.915Z,89.17
2017-12-25T06:21:50.422Z,89.48
2017-12-25T06:24:17.943Z,89.12
2017-12-25T06:26:45.456Z,89.21
2017-12-25T06:29:12.992Z,89.40
2017-12-25T06:31:40.559Z,88.98
2017-12-25T06:34:08.083Z,89.49
2017-12-25T06:36:35.611Z,89.18
2017-12-25T06:39:03.161Z,88.73
2017-12-25T06:41:30.700Z,89.66
2017-12-25T06:43:58.234Z,89.52
2017-12-25T06:46:25.767Z,88.74
2017-12-25T06:48:53.300Z,88.84
2017-12-25T06:51:20.806Z,89.12
2017-12-25T06:53:48.352Z,89.91
2017-12-25T06:56:15.866Z,89.00
2017-12-25T06:58:43.377Z,90.65
2017-12-25T07:01:10.890Z,91.30
2017-12-25T07:03:38.406Z,90.48
2017-12-25T07:06:05.932Z,91.42
2017-12-25T07:08:33.450Z,91.29
2017-12-25T07:11:00.977Z,91.74
2017-12-25T07:13:28.491Z,90.44
2017-12-25T07:15:56.026Z,89.65
2017-12-25T07:18:23.552Z,90.93
2017-12-25T07:20:51.068Z,90.56
2017-12-25T07:23:18.576Z,90.37
2017-12-25T07:25:46.092Z,90.93
2017-12-25T07:28:13.745Z,91.04
2017-12-25T07:30:41.276Z,91.44
2017-12-25T07:33:08.835Z,90.49
2017-12-25T07:35:36.351Z,89.92
2017-12-25T07:38:03.852Z,89.67
2017-12-25T07:40:31.386Z,89.13
2017-12-25T07:42:58.917Z,89.52
2017-12-25T07:45:26.471Z,90.31
2017-12-25T07:47:54.037Z,90.55
2017-12-25T07:50:21.559Z,90.92
2017-12-25T07:52:49.098Z,88.70
2017-12-25T07:55:16.611Z,88.52
2017-12-25T07:57:44.118Z,89.72
2017-12-25T08:00:11.642Z,88.89
2017-12-25T08:02:39.166Z,89.05
2017-12-25T08:05:06.698Z,88.64
2017-12-25T08:07:34.218Z,88.69
2017-12-25T08:10:01.742Z,89.33
2017-12-25T08:12:29.273Z,87.45
2017-12-25T08:14:56.795Z,89.48
2017-12-25T08:17:24.313Z,88.36
2017-12-25T08:19:51.854Z,88.47
2017-12-25T08:22:19.381Z,89.54
2017-12-25T08:24:46.900Z,88.22
2017-12-25T08:27:14.620Z,88.61
2017-12-25T08:29:42.197Z,89.51
2017-12-25T08:32:09.727Z,90.23
2017-12-25T08:34:37.281Z,88.88
2017-12-25T08:37:04.788Z,86.77
2017-12-25T08:39:32.448Z,86.28
2017-12-25T08:42:00.009Z,85.88
2017-12-25T08:44:27.601Z,85.06
2017-12-25T08:46:55.117Z,83.71
2017-12-25T08:49:22.643Z,81.65
2017-12-25T08:51:50.147Z,83.91
2017-12-25T08:54:17.668Z,82.52
2017-12-25T08:56:45.206Z,82.95
2017-12-25T08:59:12.712Z,80.42
2017-12-25T09:01:40.222Z,78.53
2017-12-25T09:04:07.742Z,75.41
2017-12-25T09:06:35.263Z,79.05
2017-12-25T09:09:02.831Z,77.16
2017-12-25T09:11:30.413Z,78.75
2017-12-25T09:13:57.935Z,79.37
2017-12-25T09:16:25.451Z,80.87
2017-12-25T09:18:52.972Z,79.95
2017-12-25T09:21:20.522Z,78.72
2017-12-25T09:23:48.021Z,81.09
2017-12-25T09:26:15.523Z,80.58
2017-12-25T09:28:43.052Z,78.82
2017-12-25T09:31:10.575Z,74.49
2017-12-25T09:33:38.096Z,74.83
2017-12-25T09:36:05.701Z,72.22
2017-12-25T09:38:33.224Z,71.52
2017-12-25T09:41:00.920Z,68.78
2017-12-25T09:43:28.448Z,71.25
2017-12-25T09:45:55.962Z,69.26
2017-12-25T09:48:23.488Z,66.82
2017-12-25T09:50:50.996Z,64.11
2017-12-25T09:53:18.542Z,68.36
2017-12-25T09:55:46.094Z,68.48
2017-12-25T09:58:13.636Z,68.05
2017-12-25T10:00:41.196Z,67.19
2017-12-25T10:03:08.837Z,72.41
2017-12-25T10:05:36.435Z,69.67
2017-12-25T10:08:03.963Z,70.25
2017-12-25T10:10:31.493Z,66.10
2017-12-25T10:12:59.008Z,63.88
2017-12-25T10:15:26.541Z,59.63
2017-12-25T10:17:54.192Z,53.73
2017-12-25T10:20:22.468Z,57.41
2017-12-25T10:22:49.996Z,59.30
2017-12-25T10:25:17.551Z,57.08
2017-12-25T10:27:45.117Z,59.47
2017-12-25T10:30:12.638Z,59.24
2017-12-25T10:32:40.169Z,59.46
2017-12-25T10:35:07.671Z,64.16
2017-12-25T10:37:35.200Z,64.11
2017-12-25T10:40:02.711Z,62.47
2017-12-25T10:42:30.290Z,59.78
2017-12-25T10:44:57.821Z,57.88
2017-12-25T10:47:25.325Z,57.89
2017-12-25T10:49:52.881Z,56.67
2017-12-25T10:52:20.413Z,55.86
2017-12-25T10:54:47.952Z,54.26
2017-12-25T10:57:15.483Z,53.19
2017-12-25T10:59:43.029Z,51.82
2017-12-25T11:02:10.598Z,55.37
2017-12-25T11:04:38.106Z,53.88
2017-12-25T11:07:05.626Z,52.86
2017-12-25T11:09:33.156Z,51.65
2017-12-25T11:12:00.696Z,53.42
2017-12-25T11:14:28.232Z,53.71
2017-12-25T11:16:55.776Z,60.74
2017-12-25T11:19:23.309Z,59.57
2017-12-25T11:21:50.827Z,58.15
2017-12-25T11:24:18.355Z,54.92
2017-12-25T11:26:45.874Z,58.17
2017-12-25T11:29:13.397Z,56.60
2017-12-25T11:31:40.923Z,54.00
2017-12-25T11:34:08.433Z,52.93
2017-12-25T11:36:36.003Z,49.43
2017-12-25T11:39:03.519Z,46.61
2017-12-25T11:41:31.031Z,45.16
2017-12-25T11:43:58.564Z,44.56
2017-12-25T11:46:26.098Z,41.21
2017-12-25T11:48:53.613Z,39.16
2017-12-25T11:51:21.137Z,40.19
2017-12-25T11:53:48.652Z,37.62
2017-12-25T11:56:16.186Z,39.60
2017-12-25T11:58:43.735Z,39.44
2017-12-25T12:01:11.287Z,39.77
2017-12-25T12:03:38.806Z,40.75
2017-12-25T12:06:06.343Z,42.80
2017-12-25T12:08:33.906Z,44.93
2017-12-25T12:11:01.445Z,48.79
2017-12-25T12:13:29.006Z,48.82
2017-12-25T12:15:56.517Z,57.21
2017-12-25T12:18:24.041Z,57.49
2017-12-25T12:20:51.561Z,54.49
2017-12-25T12:23:19.076Z,54.83
2017-12-25T12:25:46.596Z,54.07
2017-12-25T12:28:14.231Z,58.16
2017-12-25T12:30:41.763Z,58.16
2017-12-25T12:33:09.288Z,56.56
2017-12-25T12:35:36.818Z,58.20
2017-12-25T12:38:04.388Z,60.66
2017-12-25T12:40:31.973Z,61.81
2017-12-25T12:42:59.448Z,61.84
2017-12-25T12:45:26.968Z,59.53
2017-12-25T12:47:54.483Z,58.96
2017-12-25T12:50:22.009Z,59.49
2017-12-25T12:52:49.554Z,61.63
2017-12-25T12:55:17.073Z,58.88
2017-12-25T12:57:44.594Z,59.03
2017-12-25T13:00:12.127Z,58.71
2017-12-25T13:02:39.660Z,60.07
2017-12-25T13:05:07.193Z,57.93
2017-12-25T13:07:34.722Z,56.98
2017-12-25T13:10:02.234Z,58.80
2017-12-25T13:12:29.759Z,59.01
2017-12-25T13:14:57.272Z,57.78
2017-12-25T13:17:24.774Z,60.54
2017-12-25T13:19:52.320Z,60.05
2017-12-25T13:22:19.827Z,61.56
2017-12-25T13:24:47.374Z,63.52
2017-12-25T13:27:14.898Z,61.79
2017-12-25T13:29:42.464Z,60.86
2017-12-25T13:32:09.989Z,63.31
2017-12-25T13:34:37.528Z,62.44
2017-12-25T13:37:05.040Z,62.31
2017-12-25T13:39:32.612Z,61.36
2017-12-25T13:42:00.145Z,62.21
2017-12-25T13:44:27.696Z,62.22
2017-12-25T13:46:55.227Z,59.62
2017-12-25T13:49:22.752Z,61.59
2017-12-25T13:51:50.276Z,63.92
2017-12-25T13:54:17.802Z,65.58
2017-12-25T13:56:45.338Z,66.42
2017-12-25T13:59:12.858Z,69.00
2017-12-25T14:01:40.368Z,71.30
2017-12-25T14:04:07.883Z,71.54
2017-12-25T14:06:35.452Z,71.47
2017-12-25T14:09:02.972Z,71.44
2017-12-25T14:11:30.534Z,73.03
2017-12-25T14:13:58.047Z,73.19
2017-12-25T14:16:25.568Z,73.82
2017-12-25T14:18:53.097Z,74.21
2017-12-25T14:21:20.613Z,75.97
2017-12-25T14:23:48.137Z,75.06
2017-12-25T14:26:15.650Z,76.66
2017-12-25T14:28:43.173Z,77.24
2017-12-25T14:31:10.692Z,78.58
2017-12-25T14:33:38.214Z,79.82
2017-12-25T14:36:05.724Z,79.55
2017-12-25T14:38:33.275Z,80.14
2017-12-25T14:41:00.802Z,81.15
2017-12-25T14:43:28.320Z,81.68
2017-12-25T14:45:55.827Z,81.96
2017-12-25T14:48:23.420Z,81.99
2017-12-25T14:50:50.954Z,81.48
2017-12-25T14:53:18.471Z,81.45
2017-12-25T14:55:46.050Z,82.66
2017-12-25T14:58:13.579Z,82.89
2017-12-25T15:00:41.104Z,84.63
2017-12-25T15:03:08.674Z,85.00
2017-12-25T15:05:36.189Z,85.13
2017-12-25T15:08:03.708Z,84.87
2017-12-25T15:10:31.233Z,84.15
2017-12-25T15:12:58.772Z,83.86
2017-12-25T15:15:26.309Z,84.08
2017-12-25T15:17:53.850Z,84.07
2017-12-25T15:20:21.584Z,86.24
2017-12-25T15:22:49.119Z,86.91
2017-12-25T15:25:16.654Z,89.12
2017-12-25T15:27:44.154Z,88.57
2017-12-25T15:30:11.700Z,87.62
2017-12-25T15:32:39.293Z,87.48
2017-12-25T15:35:06.840Z,87.73
2017-12-25T15:37:34.357Z,87.54
2017-12-25T15:40:01.894Z,88.06
2017-12-25T15:42:29.432Z,88.29
2017-12-25T15:44:56.962Z,90.52
2017-12-25T15:47:24.504Z,89.67
2017-12-25T15:49:52.060Z,89.56
2017-12-25T15:52:19.570Z,89.57
2017-12-25T15:54:47.133Z,90.47
2017-12-25T15:57:14.715Z,91.32
2017-12-25T15:59:42.265Z,92.42
2017-12-25T16:02:09.768Z,93.42
2017-12-25T16:04:37.305Z,92.91
2017-12-25T16:07:04.840Z,92.53
2017-12-25T16:09:32.352Z,92.82
2017-12-25T16:11:59.896Z,93.04
2017-12-25T16:14:27.493Z,92.68
2017-12-25T16:16:55.055Z,92.72
2017-12-25T16:19:22.590Z,92.49
2017-12-25T16:21:50.171Z,94.20
2017-12-25T16:24:17.716Z,93.34
2017-12-25T16:26:45.251Z,92.92
2017-12-25T16:29:12.788Z,92.83
2017-12-25T16:31:40.292Z,91.57
2017-12-25T16:34:07.809Z,92.85
2017-12-25T16:36:35.342Z,94.80
2017-12-25T16:39:02.910Z,94.55
2017-12-25T16:41:30.409Z,94.38
2017-12-25T16:43:57.943Z,93.46
2017-12-25T16:46:25.472Z,93.18
2017-12-25T16:48:53.017Z,92.54
2017-12-25T16:51:20.528Z,92.11
2017-12-25T16:53:48.027Z,92.99
2017-12-25T16:56:15.541Z,93.98
2017-12-25T16:58:43.060Z,94.85
2017-12-25T17:01:10.619Z,95.45
2017-12-25T17:03:38.128Z,94.52
2017-12-25T17:06:07.043Z,94.37
2017-12-25T17:08:34.673Z,93.10
2017-12-25T17:11:02.209Z,93.13
2017-12-25T17:13:29.764Z,93.63
2017-12-25T17:15:57.283Z,93.39
2017-12-25T17:18:24.798Z,94.73
2017-12-25T17:20:52.349Z,93.60
2017-12-25T17:23:19.867Z,94.52
2017-12-25T17:25:47.389Z,95.53
2017-12-25T17:28:14.915Z,95.24
2017-12-25T17:30:42.420Z,92.99
2017-12-25T17:33:09.956Z,93.81
2017-12-25T17:35:37.490Z,94.42
2017-12-25T17:38:05.034Z,94.48
2017-12-25T17:40:32.575Z,94.58
2017-12-25T17:43:00.119Z,95.30
2017-12-25T17:45:27.835Z,95.86
2017-12-25T17:47:55.372Z,95.58
2017-12-25T17:50:22.911Z,95.67
2017-12-25T17:52:50.574Z,95.71
2017-12-25T17:55:18.109Z,95.13
2017-12-25T17:57:45.627Z,95.57
2017-12-25T18:00:13.209Z,96.38
2017-12-25T18:02:40.740Z,96.67
2017-12-25T18:05:08.269Z,96.96
2017-12-25T18:07:35.804Z,97.07
2017-12-25T18:10:03.343Z,97.32
2017-12-25T18:12:30.885Z,96.90
2017-12-25T18:14:58.404Z,96.77
2017-12-25T18:17:25.928Z,96.90
2017-12-25T18:19:53.514Z,96.82
2017-12-25T18:22:21.014Z,96.79
2017-12-25T18:24:48.540Z,97.50
2017-12-25T18:27:16.079Z,97.07
2017-12-25T18:29:43.617Z,96.21
2017-12-25T18:32:11.140Z,95.33
2017-12-25T18:34:38.977Z,94.47
2017-12-25T18:37:06.494Z,95.37
2017-12-25T18:39:34.038Z,96.59
2017-12-25T18:42:01.562Z,97.34
2017-12-25T18:44:29.128Z,97.64
2017-12-25T18:46:56.644Z,96.53
2017-12-25T18:49:24.235Z,96.22
2017-12-25T18:51:51.764Z,95.89
2017-12-25T18:54:19.345Z,95.48
2017-12-25T18:56:46.903Z,95.47
2017-12-25T18:59:14.404Z,95.67
2017-12-25T19:01:41.929Z,95.42
2017-12-25T19:04:09.458Z,95.32
2017-12-25T19:06:36.994Z,95.56
2017-12-25T19:09:04.558Z,95.61
2017-12-25T19:11:32.450Z,95.99
2017-12-25T19:13:59.964Z,95.99
2017-12-25T19:16:27.532Z,96.01
2017-12-25T19:18:55.060Z,95.93
2017-12-25T19:21:22.599Z,95.82
2017-12-25T19:23:50.239Z,95.42
2017-12-25T19:26:17.793Z,94.56
2017-12-25T19:28:45.312Z,94.44
2017-12-25T19:31:12.839Z,94.90
2017-12-25T19:33:40.928Z,96.33
2017-12-25T19:36:08.532Z,96.92
2017-12-25T19:38:36.060Z,96.37
2017-12-25T19:41:03.611Z,96.41
2017-12-25T19:43:31.159Z,96.47
2017-12-25T19:45:58.764Z,96.49
2017-12-25T19:48:26.373Z,95.88
2017-12-25T19:50:53.914Z,96.09
2017-12-25T19:53:21.639Z,97.10
2017-12-25T19:55:49.165Z,96.77
2017-12-25T19:58:16.724Z,96.59
2017-12-25T20:00:44.311Z,96.00
2017-12-25T20:03:11.878Z,96.32
2017-12-25T20:05:39.419Z,96.45
2017-12-25T20:08:07.369Z,95.84
2017-12-25T20:10:35.016Z,95.96
2017-12-25T20:13:02.635Z,96.74
2017-12-25T20:15:30.173Z,97.51
2017-12-25T20:17:57.771Z,98.04
2017-12-25T20:20:25.376Z,97.75
2017-12-25T20:22:52.998Z,97.48
2017-12-25T20:25:20.584Z,97.25
2017-12-25T20:27:48.135Z,97.30
2017-12-25T20:30:15.876Z,97.18
2017-12-25T20:32:43.620Z,97.11
2017-12-25T20:35:11.209Z,96.67
2017-12-25T20:37:38.738Z,96.42
2017-12-25T20:40:06.295Z,96.46
2017-12-25T20:42:34.009Z,96.53
2017-12-25T20:45:01.538Z,96.57
2017-12-25T20:47:29.084Z,96.15
2017-12-25T20:49:56.681Z,96.12
2017-12-25T20:52:24.458Z,96.57
2017-12-25T20:54:52.019Z,96.38
2017-12-25T20:57:19.579Z,96.39
2017-12-25T20:59:47.120Z,96.76
2017-12-25T21:02:14.768Z,96.12
2017-12-25T21:04:42.454Z,95.66
2017-12-25T21:07:10.031Z,95.14
2017-12-25T21:09:37.701Z,95.36
2017-12-25T21:12:05.277Z,95.37
2017-12-25T21:14:32.873Z,95.78
2017-12-25T21:17:00.474Z,96.13
2017-12-25T21:19:28.031Z,95.72
2017-12-25T21:21:55.558Z,95.61
2017-12-25T21:24:23.110Z,95.65
2017-12-25T21:26:50.683Z,96.27
2017-12-25T21:29:18.210Z,95.79
2017-12-25T21:31:45.825Z,96.06
2017-12-25T21:34:13.439Z,96.06
2017-12-25T21:36:41.023Z,96.20
2017-12-25T21:39:08.560Z,95.96
2017-12-25T21:41:36.289Z,95.90
2017-12-25T21:44:03.916Z,96.81
2017-12-25T21:46:31.476Z,96.29
2017-12-25T21:48:59.045Z,96.55
2017-12-25T21:51:26.615Z,95.97
2017-12-25T21:53:54.249Z,96.21
2017-12-25T21:56:21.917Z,96.99
2017-12-25T21:58:54.260Z,97.14
2017-12-25T22:01:22.001Z,96.16
2017-12-25T22:03:49.750Z,97.07
2017-12-25T22:06:20.755Z,96.94
2017-12-25T22:08:52.063Z,97.08
2017-12-25T22:11:19.669Z,97.10
2017-12-25T22:13:47.225Z,96.94
2017-12-25T22:16:14.839Z,96.41
2017-12-25T22:18:42.377Z,95.96
2017-12-25T22:21:10.014Z,96.13
2017-12-25T22:23:37.593Z,96.06
2017-12-25T22:26:05.146Z,96.23
2017-12-25T22:28:32.686Z,96.79
2017-12-25T22:31:00.231Z,97.39
2017-12-25T22:33:27.783Z,97.42
2017-12-25T22:35:55.339Z,97.36
2017-12-25T22:38:22.876Z,97.11
2017-12-25T22:40:50.539Z,97.28
2017-12-25T22:43:18.122Z,97.13
2017-12-25T22:45:45.699Z,97.43
2017-12-25T22:48:13.236Z,97.38
2017-12-25T22:50:40.800Z,96.91
2017-12-25T22:53:08.350Z,97.17
2017-12-25T22:55:35.876Z,97.80
2017-12-25T22:58:03.501Z,97.71
2017-12-25T23:00:31.056Z,97.76
2017-12-25T23:02:58.605Z,97.22
2017-12-25T23:05:26.176Z,97.20
2017-12-25T23:07:53.735Z,95.93
2017-12-25T23:10:21.286Z,95.99
2017-12-25T23:12:48.824Z,96.88
2017-12-25T23:15:16.381Z,97.62
2017-12-25T23:17:43.920Z,97.78
2017-12-25T23:20:11.485Z,98.07
2017-12-25T23:22:39.060Z,98.30
2017-12-25T23:25:06.611Z,98.50
2017-12-25T23:27:34.146Z,98.51
2017-12-25T23:30:01.690Z,98.69
2017-12-25T23:32:29.236Z,98.50
2017-12-25T23:34:56.766Z,98.24
2017-12-25T23:37:24.356Z,98.24
2017-12-25T23:39:51.922Z,97.71
2017-12-25T23:42:19.454Z,97.75
2017-12-25T23:44:47.001Z,97.52
2017-12-25T23:47:14.556Z,97.41
2017-12-25T23:49:42.136Z,96.75
2017-12-25T23:52:09.675Z,95.84
2017-12-25T23:54:37.221Z,95.85
2017-12-25T23:57:04.765Z,95.98
2017-12-25T23:59:32.300Z,96.83
